Antioch, TX

6:27 AM CDT on July 10, 2014 (GMT -0500)
Amateur Radio Station -- W5RYM (KTXJOAQU2) Elev 283 ft | 31.91 °N, 94.08 °W | Change Station

Current weather conditions updated 2 seconds ago

Clear
Clear
71.3 °F
Feels Like 71.3 °F
N
0.0
Wind Variable Wind from SSW
Gusts 1.0 mph

Today is forecast to be Warmer than yesterday.

Today
High -- | Low -- °F
--% Chance of Precip.
Yesterday
High -- | Low -- °F
Precip. -- in
6:18 AM 8:24 PM
Waxing Gibbous, 94% visible
Pressure 30.04 in
Visibility 5.0 miles
Clouds Clear
Dew Point 71 °F
Humidity 99%
Rainfall 0.00 in
Snow Depth Not available.
UV 0 out of 12
Pollen 3.20 out of 12
Air Quality Not available.
Flu Activity Sporadic
METAR KOCH 101115Z 00000KT 5SM CLR 21/20 A3004 RMK AO1

More Conditions Fewer Conditions

Pressure 30.04 in
Visibility 5.0 miles
Clouds Clear
Dew Point 71 °F
Humidity 99%
Rainfall 0.00 in
Snow Depth Not available.
UV 0 out of 12
Pollen 3.20 out of 12
Air Quality Not available.
Flu Activity Sporadic
METAR KOCH 101115Z 00000KT 5SM CLR 21/20 A3004 RMK AO1

More Conditions Fewer Conditions

10-Day Weather Forecast

Almanac

Astronomy

Jul. 10, 2014 Rise Set
Actual Time 6:18 AM CDT 8:24 PM CDT
Civil Twilight 5:50 AM CDT 8:52 PM CDT
Nautical Twilight 5:16 AM CDT 9:26 PM CDT
Astronomical Twilight 4:40 AM CDT 10:02 PM CDT
Moon 6:41 PM CDT 4:27 AM CDT
Length of Visible Light 15h 01m
Length of Day
14h 06m
Tomorrow will be 0m 49s shorter.
Waxing Gibbous, 94% of the Moon is Illuminated
Today
Waxing Gibbous
Jul 12
Full
Jul 18
Last Quarter
Jul 26
New
Aug 3
First Quarter

Today's Extremes

State Highs State Lows

Community

WunderPhotos

Upload Photos

1,732,096 photos uploaded!

Nearby

Snow Depth

Station Depth Elevation
No new snow has been reported.

Earthquake Activity

City Distance Mag. Time & Date
No recent earthquake activity has been reported nearby.
Minimum magnitude displayed is 2.5.

Coastal Water Temperatures

Place Temperature
No Stations Reporting

Nearby Weather Stations

Station Location Temp. Heat Index Dew Point Humidity Wind Precip. Elev Updated Type
Amateur Radio Station -- W5RYM, Joaquin, TX 71.3 °F - 71 °F 99% SSW  at  0.0 mph 0.00 in / hr 283 ft 6:27 AM CDT Rapid Fire
MesoWest JOAQUN , Joaquin, TX 82 °F 80 °F - - North  at  - 0.00 in / hr 205 ft 4:45 AM CDT MADIS
MesoWest TENAHA , Tenaha, TX 77 °F 75 °F - - North  at  - 0.00 in / hr 359 ft 5:05 AM CDT MADIS
Center, TX, Center, TX 72.5 °F - 71 °F 96% SSW  at  0.0 mph 0.00 in / hr 348 ft 6:27 AM CDT Rapid Fire
RAWS SABINE NORTH TX, Huxley, TX 74 °F 71 °F 73 °F 96% North  at  - 0.00 in / hr 145 ft 5:00 AM CDT MADIS
MesoWest TMPSON , Timpson, TX 71 °F - - - North  at  - 0.00 in / hr 352 ft 4:25 AM CDT MADIS
rural Deep East Texas, San Augustine, TX 73.2 °F - 72 °F 95% NNW  at  0.0 mph 0.00 in / hr 443 ft 6:26 AM CDT Normal

Show More Stations Show Fewer Stations